createdAt,value
2023-04-18T00:01:32.396Z,4
2023-04-18T00:04:04.473Z,4
2023-04-18T00:06:34.815Z,4
2023-04-18T00:09:05.319Z,5
2023-04-18T00:11:35.571Z,4
2023-04-18T00:14:05.697Z,4
2023-04-18T00:16:36.549Z,8
2023-04-18T00:19:07.320Z,4
2023-04-18T00:21:37.602Z,7
2023-04-18T00:24:10.167Z,7
2023-04-18T00:26:41.587Z,5
2023-04-18T00:29:13.364Z,4
2023-04-18T00:31:43.863Z,7
2023-04-18T00:34:14.809Z,4
2023-04-18T00:36:44.599Z,4
2023-04-18T00:39:15.381Z,4
2023-04-18T00:41:45.525Z,8
2023-04-18T00:44:14.768Z,8
2023-04-18T00:46:45.420Z,6
2023-04-18T00:49:16.170Z,6
2023-04-18T00:51:45.955Z,4
2023-04-18T00:54:16.942Z,7
2023-04-18T00:56:47.938Z,4
2023-04-18T00:59:18.438Z,4
2023-04-18T01:01:49.069Z,6
2023-04-18T01:04:20.176Z,4
2023-04-18T01:06:50.681Z,4
2023-04-18T01:09:21.959Z,6
2023-04-18T01:11:52.918Z,4
2023-04-18T01:14:23.559Z,6
2023-04-18T01:16:54.358Z,4
2023-04-18T01:19:25.466Z,4
2023-04-18T01:21:56.828Z,4
2023-04-18T01:24:27.442Z,4
2023-04-18T01:26:58.131Z,4
2023-04-18T01:29:28.534Z,4
2023-04-18T01:31:59.602Z,4
2023-04-18T01:34:30.935Z,4
2023-04-18T01:37:02.438Z,4
2023-04-18T01:39:33.324Z,4
2023-04-18T01:42:04.377Z,4
2023-04-18T01:44:36.073Z,7
2023-04-18T01:47:07.050Z,4
2023-04-18T01:49:37.891Z,4
2023-04-18T01:52:08.806Z,4
2023-04-18T01:54:39.559Z,4
2023-04-18T01:57:10.450Z,4
2023-04-18T01:59:40.880Z,4
2023-04-18T02:02:13.720Z,4
2023-04-18T02:04:44.639Z,4
2023-04-18T02:07:15.205Z,4
2023-04-18T02:09:45.773Z,4
2023-04-18T02:12:16.643Z,4
2023-04-18T02:14:46.948Z,0
2023-04-18T02:17:17.669Z,4
2023-04-18T02:19:48.658Z,4
2023-04-18T02:22:19.838Z,4
2023-04-18T02:24:49.969Z,4
2023-04-18T02:27:20.843Z,4
2023-04-18T02:29:51.677Z,4
2023-04-18T02:32:22.235Z,1
2023-04-18T02:34:52.776Z,2
2023-04-18T02:37:23.647Z,1
2023-04-18T02:39:53.764Z,0
2023-04-18T02:42:24.275Z,3
2023-04-18T02:44:55.292Z,1
2023-04-18T02:47:25.897Z,4
2023-04-18T02:49:56.229Z,0
2023-04-18T02:52:27.104Z,1
2023-04-18T02:54:58.325Z,2
2023-04-18T02:57:28.951Z,4
2023-04-18T02:59:59.490Z,1
2023-04-18T03:02:30.709Z,1
2023-04-18T03:05:01.844Z,4
2023-04-18T03:07:32.363Z,4
2023-04-18T03:10:04.705Z,4
2023-04-18T03:12:35.362Z,0
2023-04-18T03:15:05.902Z,0
2023-04-18T03:17:36.170Z,1
2023-04-18T03:20:06.923Z,0
2023-04-18T03:22:37.424Z,0
2023-04-18T03:25:08.429Z,0
2023-04-18T03:27:41.148Z,0
2023-04-18T03:30:11.179Z,0
2023-04-18T03:32:41.608Z,1
2023-04-18T03:35:12.383Z,0
2023-04-18T03:37:42.627Z,0
2023-04-18T03:40:13.189Z,4
2023-04-18T03:42:44.106Z,0
2023-04-18T03:45:14.794Z,0
2023-04-18T03:47:45.542Z,0
2023-04-18T03:50:16.028Z,4
2023-04-18T03:52:46.131Z,1
2023-04-18T03:55:16.700Z,3
2023-04-18T03:57:47.633Z,0
2023-04-18T04:00:18.993Z,0
2023-04-18T04:02:50.960Z,4
2023-04-18T04:05:21.628Z,0
2023-04-18T04:07:52.744Z,1
2023-04-18T04:10:23.863Z,1
2023-04-18T04:12:54.143Z,0
2023-04-18T04:15:24.755Z,0
2023-04-18T04:17:55.456Z,0
2023-04-18T04:20:26.182Z,0
2023-04-18T04:22:56.912Z,3
2023-04-18T04:25:27.688Z,0
2023-04-18T04:27:58.132Z,4
2023-04-18T04:30:28.848Z,0
2023-04-18T04:32:59.750Z,0
2023-04-18T04:35:30.277Z,0
2023-04-18T04:38:00.866Z,0
2023-04-18T04:40:31.801Z,1
2023-04-18T04:43:02.704Z,0
2023-04-18T04:45:32.969Z,0
2023-04-18T04:48:07.106Z,0
2023-04-18T04:50:37.585Z,3
2023-04-18T04:53:08.217Z,0
2023-04-18T04:55:38.463Z,0
2023-04-18T04:58:08.907Z,4
2023-04-18T05:00:39.517Z,4
2023-04-18T05:03:09.915Z,2
2023-04-18T05:05:39.988Z,1
2023-04-18T05:08:10.088Z,1
2023-04-18T05:10:41.001Z,0
2023-04-18T05:13:11.499Z,3
2023-04-18T05:15:41.615Z,0
2023-04-18T05:18:12.620Z,0
2023-04-18T05:20:43.292Z,4
2023-04-18T05:23:13.802Z,0
2023-04-18T05:25:44.912Z,0
2023-04-18T05:28:15.707Z,4
2023-04-18T05:30:46.722Z,0
2023-04-18T05:33:16.909Z,4
2023-04-18T05:35:48.098Z,4
2023-04-18T05:38:18.950Z,0
2023-04-18T05:40:49.953Z,1
2023-04-18T05:43:20.612Z,3
2023-04-18T05:45:51.285Z,1
2023-04-18T05:48:21.623Z,4
2023-04-18T05:50:52.220Z,5
2023-04-18T05:53:23.000Z,0
2023-04-18T05:55:55.855Z,4
2023-04-18T05:58:26.103Z,3
2023-04-18T06:00:57.135Z,0
2023-04-18T06:03:28.092Z,0
2023-04-18T06:05:58.030Z,4
2023-04-18T06:08:29.022Z,3
2023-04-18T06:10:59.517Z,4
2023-04-18T06:13:30.504Z,4
2023-04-18T06:16:00.837Z,4
2023-04-18T06:18:31.184Z,4
2023-04-18T06:21:02.179Z,8
2023-04-18T06:23:32.998Z,8
2023-04-18T06:26:03.015Z,4
2023-04-18T06:28:34.804Z,8
2023-04-18T06:31:05.667Z,9
2023-04-18T06:33:34.008Z,18
2023-04-18T06:36:04.473Z,13
2023-04-18T06:38:35.002Z,20
2023-04-18T06:41:05.494Z,32
2023-04-18T06:43:36.227Z,12
2023-04-18T06:46:06.286Z,12
2023-04-18T06:48:37.208Z,7
2023-04-18T06:51:08.161Z,8
2023-04-18T06:53:38.610Z,29
2023-04-18T06:56:09.087Z,9
2023-04-18T06:58:39.686Z,28
2023-04-18T07:01:09.878Z,18
2023-04-18T07:03:40.241Z,8
2023-04-18T07:06:11.097Z,11
2023-04-18T07:08:41.695Z,36
2023-04-18T07:11:12.374Z,20
2023-04-18T07:13:43.314Z,9
2023-04-18T07:16:13.609Z,32
2023-04-18T07:18:43.968Z,40
2023-04-18T07:21:17.243Z,20
2023-04-18T07:23:47.518Z,40
2023-04-18T07:26:17.851Z,48
2023-04-18T07:28:48.317Z,22
2023-04-18T07:31:18.626Z,12
2023-04-18T07:33:49.125Z,8
2023-04-18T07:36:19.513Z,11
2023-04-18T07:38:49.789Z,12
2023-04-18T07:41:19.971Z,8
2023-04-18T07:43:51.255Z,8
2023-04-18T07:46:21.757Z,8
2023-04-18T07:48:52.041Z,16
2023-04-18T07:51:22.631Z,4
2023-04-18T07:53:53.082Z,19
2023-04-18T07:56:23.118Z,12
2023-04-18T07:58:52.321Z,11
2023-04-18T08:01:23.262Z,8
2023-04-18T08:03:53.745Z,5
2023-04-18T08:06:24.108Z,8
2023-04-18T08:08:54.712Z,4
2023-04-18T08:11:24.952Z,12
2023-04-18T08:13:55.317Z,9
2023-04-18T08:16:26.412Z,12
2023-04-18T08:18:55.231Z,4
2023-04-18T08:21:25.825Z,16
2023-04-18T08:23:55.836Z,12
2023-04-18T08:26:26.476Z,4
2023-04-18T08:28:57.204Z,6
2023-04-18T08:31:27.738Z,8
2023-04-18T08:33:58.263Z,18
2023-04-18T08:36:28.805Z,12
2023-04-18T08:38:59.413Z,8
2023-04-18T08:41:29.867Z,8
2023-04-18T08:44:00.782Z,12
2023-04-18T08:46:31.167Z,11
2023-04-18T08:49:01.931Z,12
2023-04-18T08:51:32.177Z,21
2023-04-18T08:54:02.553Z,16
2023-04-18T08:56:32.905Z,11
2023-04-18T08:59:03.228Z,17
2023-04-18T09:01:33.452Z,9
2023-04-18T09:04:03.942Z,12
2023-04-18T09:06:34.040Z,12
2023-04-18T09:09:04.363Z,11
2023-04-18T09:11:33.601Z,8
2023-04-18T09:14:03.769Z,25
2023-04-18T09:16:34.542Z,8
2023-04-18T09:19:06.763Z,27
2023-04-18T09:21:38.703Z,18
2023-04-18T09:24:09.896Z,23
2023-04-18T09:26:39.969Z,16
2023-04-18T09:29:08.720Z,16
2023-04-18T09:31:38.889Z,31
2023-04-18T09:34:08.837Z,39
2023-04-18T09:36:39.023Z,24
2023-04-18T09:39:09.422Z,24
2023-04-18T09:41:42.805Z,16
2023-04-18T09:44:15.193Z,9
2023-04-18T09:46:46.146Z,12
2023-04-18T09:49:14.864Z,17
2023-04-18T09:51:44.764Z,12
2023-04-18T09:54:14.873Z,5
2023-04-18T09:56:44.953Z,8
2023-04-18T09:59:15.455Z,8
2023-04-18T10:01:45.810Z,9
2023-04-18T10:04:16.163Z,34
2023-04-18T10:06:46.053Z,19
2023-04-18T10:09:16.693Z,47
2023-04-18T10:11:46.653Z,40
2023-04-18T10:14:17.141Z,12
2023-04-18T10:16:48.473Z,9
2023-04-18T10:19:17.291Z,18
2023-04-18T10:21:47.647Z,20
2023-04-18T10:24:18.855Z,12
2023-04-18T10:26:49.041Z,12
2023-04-18T10:29:19.463Z,16
2023-04-18T10:31:50.163Z,16
2023-04-18T10:34:20.647Z,11
2023-04-18T10:36:51.237Z,8
2023-04-18T10:39:22.269Z,16
2023-04-18T10:41:52.690Z,16
2023-04-18T10:44:23.665Z,13
2023-04-18T10:46:53.685Z,12
2023-04-18T10:49:25.333Z,13
2023-04-18T10:51:53.175Z,11
2023-04-18T10:54:21.896Z,11
2023-04-18T10:56:52.726Z,24
2023-04-18T10:59:23.455Z,20
2023-04-18T11:01:53.807Z,24
2023-04-18T11:04:24.194Z,28
2023-04-18T11:06:55.109Z,16
2023-04-18T11:09:24.172Z,15
2023-04-18T11:11:54.654Z,16
2023-04-18T11:14:25.511Z,12
2023-04-18T11:16:55.581Z,12
2023-04-18T11:19:26.145Z,10
2023-04-18T11:21:56.449Z,19
2023-04-18T11:24:27.079Z,16
2023-04-18T11:26:57.308Z,8
2023-04-18T11:29:27.765Z,16
2023-04-18T11:31:58.673Z,16
2023-04-18T11:34:28.177Z,9
2023-04-18T11:36:58.803Z,16
2023-04-18T11:39:29.667Z,12
2023-04-18T11:41:59.935Z,11
2023-04-18T11:44:30.875Z,14
2023-04-18T11:47:01.278Z,16
2023-04-18T11:49:31.873Z,21
2023-04-18T11:52:02.300Z,11
2023-04-18T11:54:32.479Z,16
2023-04-18T11:57:03.222Z,20
2023-04-18T11:59:33.390Z,20
2023-04-18T12:04:34.454Z,16
2023-04-18T12:07:04.737Z,16
2023-04-18T12:09:34.925Z,16
2023-04-18T12:12:05.097Z,15
2023-04-18T12:14:38.243Z,18
2023-04-18T12:17:08.720Z,16
2023-04-18T12:19:38.705Z,15
2023-04-18T12:22:09.221Z,12
2023-04-18T12:24:39.574Z,16
2023-04-18T12:27:09.900Z,16
2023-04-18T12:29:40.159Z,12
2023-04-18T12:32:10.866Z,16
2023-04-18T12:34:41.129Z,17
2023-04-18T12:37:11.600Z,16
2023-04-18T12:39:42.410Z,12
2023-04-18T12:42:11.473Z,16
2023-04-18T12:44:41.537Z,16
2023-04-18T12:47:12.472Z,21
2023-04-18T12:49:42.600Z,21
2023-04-18T12:52:13.158Z,19
2023-04-18T12:54:43.323Z,12
2023-04-18T12:57:14.084Z,20
2023-04-18T12:59:44.461Z,19
2023-04-18T13:02:15.121Z,16
2023-04-18T13:04:45.796Z,19
2023-04-18T13:07:16.737Z,16
2023-04-18T13:09:49.597Z,16
2023-04-18T13:12:20.275Z,16
2023-04-18T13:14:50.959Z,20
2023-04-18T13:17:21.648Z,16
2023-04-18T13:19:51.529Z,16
2023-04-18T13:22:21.881Z,15
2023-04-18T13:24:52.998Z,16
2023-04-18T13:27:23.774Z,12
2023-04-18T13:29:54.986Z,19
2023-04-18T13:32:25.285Z,13
2023-04-18T13:34:55.549Z,16
2023-04-18T13:37:26.419Z,12
2023-04-18T13:39:57.243Z,25
2023-04-18T13:42:27.871Z,24
2023-04-18T13:44:58.147Z,32
2023-04-18T13:47:28.613Z,33
2023-04-18T13:49:59.190Z,28
2023-04-18T13:52:29.649Z,34
2023-04-18T13:55:00.053Z,47
2023-04-18T13:57:30.847Z,42
2023-04-18T14:00:01.189Z,24
2023-04-18T14:02:31.326Z,30
2023-04-18T14:05:02.699Z,23
2023-04-18T14:07:33.077Z,42
2023-04-18T14:10:03.838Z,19
2023-04-18T14:12:34.151Z,36
2023-04-18T14:15:04.697Z,27
2023-04-18T14:17:35.251Z,32
2023-04-18T14:20:05.629Z,44
2023-04-18T14:22:36.015Z,40
2023-04-18T14:25:06.848Z,40
2023-04-18T14:27:37.103Z,24
2023-04-18T14:30:07.555Z,19
2023-04-18T14:32:38.005Z,39
2023-04-18T14:35:08.390Z,32
2023-04-18T14:37:38.853Z,20
2023-04-18T14:40:09.404Z,28
2023-04-18T14:42:39.843Z,38
2023-04-18T14:45:10.241Z,24
2023-04-18T14:47:41.223Z,26
2023-04-18T14:50:12.139Z,28
2023-04-18T14:52:42.568Z,20
2023-04-18T14:55:12.595Z,20
2023-04-18T14:57:47.049Z,20
2023-04-18T15:00:17.188Z,18
2023-04-18T15:02:48.609Z,32
2023-04-18T15:05:19.343Z,13
2023-04-18T15:07:49.487Z,20
2023-04-18T15:10:20.523Z,44
2023-04-18T15:12:51.869Z,26
2023-04-18T15:15:22.676Z,24
2023-04-18T15:17:53.048Z,15
2023-04-18T15:20:24.149Z,24
2023-04-18T15:22:53.735Z,20
2023-04-18T15:25:24.169Z,19
2023-04-18T15:27:58.222Z,18
2023-04-18T15:30:28.842Z,35
2023-04-18T15:32:59.096Z,27
2023-04-18T15:35:27.920Z,26
2023-04-18T15:37:58.222Z,20
2023-04-18T15:40:28.526Z,20
2023-04-18T15:43:00.926Z,21
2023-04-18T15:45:31.150Z,24
2023-04-18T15:48:01.350Z,20
2023-04-18T15:50:33.501Z,24
2023-04-18T15:53:02.040Z,20
2023-04-18T15:55:32.685Z,16
2023-04-18T15:58:03.592Z,27
2023-04-18T16:00:34.370Z,24
2023-04-18T16:03:04.435Z,19
2023-04-18T16:05:35.221Z,16
2023-04-18T16:08:05.296Z,16
2023-04-18T16:10:34.049Z,20
2023-04-18T16:13:04.629Z,20
2023-04-18T16:15:35.278Z,20
2023-04-18T16:18:06.776Z,16
2023-04-18T16:20:37.272Z,16
2023-04-18T16:23:07.466Z,12
2023-04-18T16:25:41.735Z,16
2023-04-18T16:28:12.008Z,12
2023-04-18T16:30:42.796Z,16
2023-04-18T16:33:13.889Z,16
2023-04-18T16:35:44.443Z,16
2023-04-18T16:38:17.192Z,13
2023-04-18T16:40:49.982Z,16
2023-04-18T16:43:20.268Z,16
2023-04-18T16:45:50.648Z,15
2023-04-18T16:48:23.603Z,20
2023-04-18T16:50:54.748Z,20
2023-04-18T16:53:25.350Z,20
2023-04-18T16:56:01.653Z,25
2023-04-18T16:58:31.835Z,24
2023-04-18T17:01:02.453Z,26
2023-04-18T17:03:33.702Z,24
2023-04-18T17:06:06.572Z,16
2023-04-18T17:08:41.191Z,32
2023-04-18T17:11:20.524Z,26
2023-04-18T17:13:50.851Z,35
2023-04-18T17:16:21.299Z,38
2023-04-18T17:18:51.173Z,35
2023-04-18T17:21:21.833Z,40
2023-04-18T17:23:51.731Z,40
2023-04-18T17:26:23.304Z,31
2023-04-18T17:28:53.949Z,28
2023-04-18T17:31:25.452Z,28
2023-04-18T17:33:56.356Z,28
2023-04-18T17:36:28.058Z,24
2023-04-18T17:38:58.075Z,28
2023-04-18T17:41:31.188Z,29
2023-04-18T17:44:02.024Z,28
2023-04-18T17:46:32.465Z,29
2023-04-18T17:49:02.768Z,26
2023-04-18T17:51:33.070Z,31
2023-04-18T17:54:03.623Z,32
2023-04-18T17:56:34.605Z,34
2023-04-18T17:59:09.503Z,36
2023-04-18T18:01:48.818Z,38
2023-04-18T18:04:18.994Z,36
2023-04-18T18:06:53.035Z,36
2023-04-18T18:09:24.835Z,32
2023-04-18T18:11:56.090Z,36
2023-04-18T18:14:25.533Z,34
2023-04-18T18:16:58.736Z,32
2023-04-18T18:19:29.192Z,32
2023-04-18T18:22:03.032Z,36
2023-04-18T18:24:42.381Z,32
2023-04-18T18:27:12.429Z,36
2023-04-18T18:29:42.335Z,33
2023-04-18T18:32:12.963Z,36
2023-04-18T18:34:43.266Z,32
2023-04-18T18:37:14.977Z,32
2023-04-18T18:39:45.378Z,32
2023-04-18T18:42:19.611Z,32
2023-04-18T18:44:49.966Z,32
2023-04-18T18:47:21.565Z,32
2023-04-18T18:49:54.317Z,28
2023-04-18T18:52:24.615Z,28
2023-04-18T18:54:54.597Z,24
2023-04-18T18:57:25.219Z,26
2023-04-18T18:59:56.107Z,23
2023-04-18T19:02:26.611Z,27
2023-04-18T19:04:58.323Z,24
2023-04-18T19:07:31.049Z,25
2023-04-18T19:10:00.847Z,28
2023-04-18T19:12:31.066Z,28
2023-04-18T19:15:03.377Z,28
2023-04-18T19:17:35.835Z,28
2023-04-18T19:20:08.173Z,23
2023-04-18T19:25:17.878Z,20
2023-04-18T19:27:48.686Z,24
2023-04-18T19:30:18.933Z,20
2023-04-18T19:32:52.414Z,24
2023-04-18T19:35:22.460Z,19
2023-04-18T19:37:52.822Z,20
2023-04-18T19:40:23.064Z,24
2023-04-18T19:42:53.584Z,21
2023-04-18T19:45:29.132Z,16
2023-04-18T19:48:00.499Z,23
2023-04-18T19:50:31.420Z,24
2023-04-18T19:53:01.690Z,24
2023-04-18T19:55:32.938Z,32
2023-04-18T19:58:04.546Z,32
2023-04-18T20:00:35.070Z,29
2023-04-18T20:03:07.167Z,29
2023-04-18T20:05:40.335Z,27
2023-04-18T20:08:10.512Z,20
2023-04-18T20:10:40.763Z,20
2023-04-18T20:13:11.142Z,20
2023-04-18T20:15:54.621Z,21
2023-04-18T20:18:27.018Z,24
2023-04-18T20:20:57.389Z,24
2023-04-18T20:23:27.595Z,32
2023-04-18T20:25:59.133Z,33
2023-04-18T20:28:29.666Z,32
2023-04-18T20:31:02.045Z,32
2023-04-18T20:33:35.146Z,32
2023-04-18T20:36:08.359Z,44
2023-04-18T20:38:41.501Z,47
2023-04-18T20:41:15.997Z,48
2023-04-18T20:43:47.153Z,47
2023-04-18T20:46:18.841Z,45
2023-04-18T20:49:03.578Z,52
2023-04-18T20:51:36.652Z,49
2023-04-18T20:54:07.047Z,51
2023-04-18T20:56:40.370Z,52
2023-04-18T20:59:11.152Z,53
2023-04-18T21:01:42.936Z,56
2023-04-18T21:04:13.691Z,52
2023-04-18T21:06:43.350Z,56
2023-04-18T21:09:17.230Z,56
2023-04-18T21:11:47.775Z,55
2023-04-18T21:14:18.971Z,56
2023-04-18T21:16:51.282Z,56
2023-04-18T21:19:25.059Z,55
2023-04-18T21:21:58.504Z,53
2023-04-18T21:24:32.960Z,52
2023-04-18T21:27:03.314Z,52
2023-04-18T21:29:34.405Z,48
2023-04-18T21:32:04.940Z,55
2023-04-18T21:34:35.921Z,53
2023-04-18T21:37:05.202Z,57
2023-04-18T21:39:35.355Z,52
2023-04-18T21:42:06.145Z,52
2023-04-18T21:44:37.475Z,56
2023-04-18T21:47:16.660Z,52
2023-04-18T21:49:49.258Z,53
2023-04-18T21:52:20.201Z,53
2023-04-18T21:54:51.160Z,58
2023-04-18T21:57:21.713Z,56
2023-04-18T21:59:52.219Z,52
2023-04-18T22:02:31.428Z,54
2023-04-18T22:04:59.713Z,56
2023-04-18T22:07:32.500Z,56
2023-04-18T22:10:04.188Z,57
2023-04-18T22:12:38.550Z,60
2023-04-18T22:15:11.669Z,59
2023-04-18T22:17:42.288Z,56
2023-04-18T22:20:13.483Z,60
2023-04-18T22:22:44.154Z,56
2023-04-18T22:25:17.371Z,55
2023-04-18T22:27:59.524Z,54
2023-04-18T22:30:42.002Z,50
2023-04-18T22:33:15.831Z,52
2023-04-18T22:35:48.179Z,56
2023-04-18T22:38:20.962Z,56
2023-04-18T22:40:51.834Z,55
2023-04-18T22:43:22.174Z,52
2023-04-18T22:45:58.079Z,48
2023-04-18T22:48:28.306Z,48
2023-04-18T22:51:03.594Z,43
2023-04-18T22:53:38.844Z,44
2023-04-18T22:56:14.276Z,42
2023-04-18T22:58:47.650Z,40
2023-04-18T23:01:18.668Z,42
2023-04-18T23:03:52.919Z,36
2023-04-18T23:06:23.708Z,32
2023-04-18T23:08:54.594Z,33
2023-04-18T23:11:26.449Z,34
2023-04-18T23:13:58.512Z,36
2023-04-18T23:16:30.886Z,41
2023-04-18T23:19:05.382Z,42
2023-04-18T23:21:35.821Z,40
2023-04-18T23:24:06.548Z,41
2023-04-18T23:26:37.104Z,44
2023-04-18T23:29:07.788Z,48
2023-04-18T23:31:38.789Z,44
2023-04-18T23:34:09.290Z,44
2023-04-18T23:36:40.364Z,44
2023-04-18T23:39:14.660Z,45
2023-04-18T23:41:45.091Z,45
2023-04-18T23:44:15.779Z,44
2023-04-18T23:46:46.839Z,50
2023-04-18T23:49:18.319Z,48
2023-04-18T23:51:48.709Z,48
2023-04-18T23:54:19.678Z,48
2023-04-18T23:56:50.680Z,48
2023-04-18T23:59:21.653Z,48
